OIIE/IKA METAR and TAF weather

Enter ICAO airport designator
Station Type Date Time Source
OIIE METAR 2022/01/26 21:00 UTC NOAA

OIIE 262100Z 20004KT 9999 FEW040 SCT100 BKN170 05/M10 Q1014


Station Type Date Time Source
OIIE Decoded METAR 2022/01/26 21:00 UTC NOAA

Station name not available
Jan 26, 2022 - 04:00 PM EST / 2022.01.26 2100 UTC
Wind: from the SSW (200 degrees) at 5 MPH (4 KT):0
Visibility: greater than 7 mile(s):0
Sky conditions: mostly cloudy
Temperature: 41 F (5 C)
Dew Point: 14 F (-10 C)
Relative Humidity: 32%
Pressure (altimeter): 29.94 in. Hg (1014 hPa)
ob: OIIE 262100Z 20004KT 9999 FEW040 SCT100 BKN170 05/M10 Q1014
cycle: 21

Station Type Date Time Source
OIIE TAF 2022/01/26 18:00 UTC NOAA

TAF OIIE 261730Z 2618/2724 15008KT 7000 FEW040 OVC100
TEMPO 2620/2624 14016KT 6000 -RA FEW035CB SCT040 BKN100
BECMG 2704/2706 FEW035CB SCT040 BKN100
TEMPO 2709/2715 14018KT 3000 SNRA
BECMG 2720/2721 30012KT FEW040 SCT100
TEMPO 2721/2724 28018KT

Example: see airport list